Time;durP1;ratioP1;P1;durP2;ratioP2;P2;SDS_P1;SDS_P2;PMS_P1;PMS_P2;Temp;Humidity;BMP_temperature;BMP_pressure;BME280_temperature;BME280_humidity;BME280_pressure;Samples;Min_cycle;Max_cycle;Signal;HPM_P1;HPM_P2
2022/12/20 00:01:09;;;;;;;4.35;1.70;;;;;;;15.54;56.72;99343.59;5091653;28;20028;-47
2022/12/20 00:03:35;;;;;;;8.35;2.40;;;;;;;15.65;56.41;99352.63;5093045;28;20401;-47
2022/12/20 00:06:01;;;;;;;6.88;1.60;;;;;;;15.77;56.43;99336.91;5092953;28;20074;-47
2022/12/20 00:08:27;;;;;;;9.50;2.47;;;;;;;15.94;56.54;99327.38;5092906;28;20482;-47
2022/12/20 00:10:52;;;;;;;9.07;1.90;;;;;;;16.06;55.66;99321.34;5092790;28;20074;-47
2022/12/20 00:13:18;;;;;;;4.75;1.60;;;;;;;16.16;55.24;99314.50;5091451;28;20135;-47
2022/12/20 00:15:43;;;;;;;6.18;1.80;;;;;;;16.24;55.41;99320.53;5091454;28;20305;-47
2022/12/20 00:18:09;;;;;;;11.40;2.40;;;;;;;16.32;55.14;99329.00;5091411;28;20032;-47
2022/12/20 00:20:34;;;;;;;13.23;2.15;;;;;;;16.37;54.85;99323.03;5091426;28;20020;-47
2022/12/20 00:23:00;;;;;;;3.88;1.45;;;;;;;16.31;54.44;99321.25;5091075;28;20084;-48
2022/12/20 00:25:26;;;;;;;4.55;1.75;;;;;;;16.15;54.31;99315.53;5091379;28;20565;-47
2022/12/20 00:27:52;;;;;;;8.52;2.92;;;;;;;16.09;54.92;99308.47;5092459;28;20020;-47
2022/12/20 00:30:18;;;;;;;6.63;2.25;;;;;;;16.11;55.51;99316.19;5091145;28;20056;-47
2022/12/20 00:32:44;;;;;;;6.85;1.58;;;;;;;16.17;54.97;99326.69;5092451;28;20020;-47
2022/12/20 00:35:11;;;;;;;5.00;2.80;;;;;;;15.94;54.82;99322.06;5092241;28;20439;-47
2022/12/20 00:37:36;;;;;;;7.65;1.73;;;;;;;15.78;55.68;99333.22;5090903;28;20028;-47
2022/12/20 00:40:03;;;;;;;6.32;1.65;;;;;;;15.55;56.16;99334.63;5092381;28;20474;-47
2022/12/20 00:42:29;;;;;;;9.48;2.25;;;;;;;15.28;57.43;99343.78;5092309;28;20027;-47
2022/12/20 00:44:54;;;;;;;9.05;1.67;;;;;;;15.44;57.42;99345.09;5092280;28;20023;-47
2022/12/20 00:47:20;;;;;;;4.57;1.58;;;;;;;15.61;57.05;99332.13;5092233;28;20020;-47
2022/12/20 00:49:45;;;;;;;7.18;1.95;;;;;;;15.82;57.20;99329.13;5090820;28;20028;-47
2022/12/20 00:52:11;;;;;;;5.25;2.13;;;;;;;15.95;56.17;99328.97;5090826;28;20085;-47
2022/12/20 00:54:37;;;;;;;8.35;2.70;;;;;;;16.00;55.82;99320.41;5090837;28;20052;-47
2022/12/20 00:57:02;;;;;;;4.85;1.52;;;;;;;15.97;55.48;99326.13;5092085;28;20024;-47
2022/12/20 00:59:28;;;;;;;7.05;1.70;;;;;;;16.04;56.24;99336.66;5092146;28;20024;-47
2022/12/20 01:01:53;;;;;;;9.40;1.88;;;;;;;16.11;56.21;99351.41;5091993;28;20543;-47
2022/12/20 01:04:19;;;;;;;11.57;1.65;;;;;;;16.07;56.18;99341.50;5090714;28;20082;-47
2022/12/20 01:06:45;;;;;;;3.85;1.17;;;;;;;16.12;56.22;99344.31;5073915;28;20043;-47
2022/12/20 01:09:12;;;;;;;5.38;1.70;;;;;;;16.09;56.08;99340.25;5091858;28;20048;-47
2022/12/20 01:11:37;;;;;;;18.60;3.45;;;;;;;16.23;55.73;99321.56;5090665;28;20059;-47
2022/12/20 01:14:14;;;;;;;4.40;1.70;;;;;;;16.14;55.77;99315.75;5092445;28;20063;-47
2022/12/20 01:16:44;;;;;;;8.27;1.83;;;;;;;16.16;54.42;99319.00;5091935;28;20164;-47
2022/12/20 01:19:12;;;;;;;11.55;1.90;;;;;;;16.08;55.41;99319.31;5090593;28;20032;-47
2022/12/20 01:21:43;;;;;;;12.25;2.67;;;;;;;16.07;55.58;99320.31;5090483;28;20043;-47
2022/12/20 01:24:10;;;;;;;6.03;1.63;;;;;;;16.18;55.40;99314.28;5091644;28;20052;-47
2022/12/20 01:26:36;;;;;;;4.72;2.03;;;;;;;16.23;56.33;99300.38;5090578;28;20043;-47
2022/12/20 01:29:01;;;;;;;2.88;1.15;;;;;;;16.24;54.53;99300.16;5091661;28;20371;-47
2022/12/20 01:31:28;;;;;;;5.60;1.88;;;;;;;16.25;55.56;99311.56;5091720;28;20035;-47
2022/12/20 01:33:54;;;;;;;5.05;1.20;;;;;;;16.36;54.39;99305.53;5090401;28;20028;-47
2022/12/20 01:36:26;;;;;;;5.18;2.03;;;;;;;16.44;55.60;99309.69;5090353;28;20020;-47
2022/12/20 01:39:09;;;;;;;3.50;1.48;;;;;;;16.59;54.26;99296.88;5091733;28;20032;-47
2022/12/20 01:41:36;;;;;;;12.13;3.83;;;;;;;16.60;53.27;99303.78;5091689;28;20680;-47
2022/12/20 01:44:05;;;;;;;8.30;3.88;;;;;;;16.56;53.02;99292.03;5091623;28;20505;-47
2022/12/20 01:46:33;;;;;;;6.97;3.00;;;;;;;16.52;53.75;99288.19;5090230;28;20023;-47
2022/12/20 01:49:06;;;;;;;4.15;2.30;;;;;;;16.54;53.08;99284.31;5092863;28;20097;-47
2022/12/20 01:51:35;;;;;;;6.97;2.78;;;;;;;16.47;53.06;99303.97;5094302;28;20029;-47
2022/12/20 01:54:09;;;;;;;4.97;2.53;;;;;;;16.44;53.44;99296.44;5094186;28;20417;-46
2022/12/20 01:56:36;;;;;;;7.45;2.05;;;;;;;16.39;53.42;99294.47;5094133;28;20093;-47
2022/12/20 01:59:01;;;;;;;4.50;2.03;;;;;;;16.42;53.64;99294.03;5095347;28;20105;-47
2022/12/20 02:01:27;;;;;;;4.22;1.90;;;;;;;16.43;52.77;99281.59;5095286;28;20066;-47
2022/12/20 02:03:54;;;;;;;7.20;1.52;;;;;;;16.37;52.99;99289.38;5095289;28;20024;-47
2022/12/20 02:06:22;;;;;;;6.18;2.38;;;;;;;16.30;53.27;99287.88;5095253;28;20394;-47
2022/12/20 02:08:50;;;;;;;3.95;1.70;;;;;;;16.16;53.97;99295.16;5095197;28;20024;-47
2022/12/20 02:11:35;;;;;;;10.27;1.95;;;;;;;15.98;53.88;99286.19;5095133;28;20508;-47
2022/12/20 02:14:17;;;;;;;5.32;2.10;;;;;;;15.80;54.81;99275.59;5095198;28;20035;-47
2022/12/20 02:17:07;;;;;;;7.57;2.53;;;;;;;15.87;55.15;99278.97;5095114;28;20028;-47
2022/12/20 02:20:07;;;;;;;7.68;1.88;;;;;;;16.04;54.75;99273.91;5093789;28;20051;-47
2022/12/20 02:23:10;;;;;;;10.77;2.33;;;;;;;16.17;53.69;99263.16;5093688;28;20020;-47
2022/12/20 02:26:10;;;;;;;4.15;1.77;;;;;;;16.22;52.91;99259.03;5093672;28;20039;-47
2022/12/20 02:29:04;;;;;;;4.47;1.88;;;;;;;16.22;52.39;99264.31;5094890;28;20081;-47
2022/12/20 02:31:37;;;;;;;4.35;1.70;;;;;;;16.08;52.35;99277.75;5093509;28;20424;-47
2022/12/20 02:34:06;;;;;;;6.65;1.73;;;;;;;15.98;52.90;99275.59;5094779;28;20490;-47
2022/12/20 02:36:32;;;;;;;9.40;2.17;;;;;;;16.03;52.53;99263.53;5094676;28;20493;-47
2022/12/20 02:38:57;;;;;;;5.45;1.52;;;;;;;16.00;53.00;99264.81;5094693;28;20081;-47
2022/12/20 02:41:32;;;;;;;11.63;2.00;;;;;;;15.89;53.52;99270.81;5094824;28;20065;-47
2022/12/20 02:46:49;;;;;;;5.88;1.73;;;;;;;15.92;53.26;99260.59;5095078;28;20073;-47
2022/12/20 02:49:19;;;;;;;4.72;2.40;;;;;;;15.89;53.40;99266.31;5094437;28;20035;-47
2022/12/20 02:51:47;;;;;;;8.18;1.80;;;;;;;15.94;52.59;99263.84;5093086;28;20032;-47
2022/12/20 02:54:14;;;;;;;5.20;2.20;;;;;;;15.96;53.35;99261.78;5093096;28;20020;-47
2022/12/20 02:56:55;;;;;;;7.25;2.63;;;;;;;16.12;52.44;99265.66;5094310;28;20051;-47
2022/12/20 02:59:27;;;;;;;4.45;1.90;;;;;;;16.13;51.93;99256.69;5092756;28;20031;-47
2022/12/20 03:01:54;;;;;;;9.65;2.72;;;;;;;16.15;52.60;99259.91;5092928;28;20040;-47
2022/12/20 03:04:29;;;;;;;7.20;1.58;;;;;;;16.15;52.81;99267.06;5094223;28;20562;-47
2022/12/20 03:07:10;;;;;;;8.00;1.48;;;;;;;16.20;52.45;99269.84;5092850;28;20027;-47
2022/12/20 03:09:39;;;;;;;6.95;2.58;;;;;;;16.28;52.49;99258.13;5092867;28;20506;-47
2022/12/20 03:12:06;;;;;;;17.52;2.50;;;;;;;16.23;51.84;99248.22;5092699;28;20036;-47
2022/12/20 03:14:32;;;;;;;12.27;5.60;;;;;;;16.22;52.59;99261.66;5093943;28;20486;-47
2022/12/20 03:16:58;;;;;;;4.80;1.15;;;;;;;16.36;51.64;99252.56;5075877;28;20031;-47
2022/12/20 03:19:24;;;;;;;26.27;10.23;;;;;;;16.32;52.39;99243.44;5092558;28;20035;-47
2022/12/20 03:21:49;;;;;;;9.55;3.03;;;;;;;16.52;50.65;99243.97;5093896;28;20032;-47
2022/12/20 03:24:16;;;;;;;21.17;8.93;;;;;;;16.62;50.41;99242.59;5092384;28;20059;-47
2022/12/20 03:26:42;;;;;;;14.38;7.03;;;;;;;16.75;50.70;99240.56;5093687;28;20498;-47
2022/12/20 03:29:08;;;;;;;27.42;10.02;;;;;;;16.83;50.14;99233.38;5093574;28;20024;-47
2022/12/20 03:31:33;;;;;;;8.10;2.88;;;;;;;16.94;49.62;99228.09;5093669;28;20020;-47
2022/12/20 03:33:59;;;;;;;28.30;10.80;;;;;;;16.86;49.25;99233.72;5093842;28;20024;-47
2022/12/20 03:36:25;;;;;;;18.25;7.32;;;;;;;16.84;50.11;99225.19;5092200;28;20107;-47
2022/12/20 03:38:52;;;;;;;25.98;7.85;;;;;;;16.78;49.99;99216.28;5093508;28;20137;-47
2022/12/20 03:41:18;;;;;;;13.20;4.72;;;;;;;16.73;50.22;99217.97;5075418;28;20066;-47
2022/12/20 03:43:44;;;;;;;13.10;5.20;;;;;;;16.79;49.60;99222.38;5092115;28;20142;-47
2022/12/20 03:46:09;;;;;;;23.80;10.60;;;;;;;16.74;49.79;99219.59;5092060;28;20525;-47
2022/12/20 03:48:35;;;;;;;15.43;5.63;;;;;;;16.80;49.83;99223.16;5092027;28;20054;-47
2022/12/20 03:51:01;;;;;;;13.77;4.63;;;;;;;16.83;49.10;99223.56;5093208;28;20106;-47
2022/12/20 03:53:26;;;;;;;25.85;7.57;;;;;;;16.71;50.44;99220.06;5091957;28;20035;-47
2022/12/20 03:55:52;;;;;;;24.55;8.32;;;;;;;16.84;49.98;99217.25;5093180;28;20122;-47
2022/12/20 03:58:17;;;;;;;24.42;8.20;;;;;;;16.89;50.02;99209.41;5091830;28;20476;-47
2022/12/20 04:00:43;;;;;;;13.23;5.03;;;;;;;16.89;50.34;99220.00;5093085;28;20016;-47
2022/12/20 04:03:08;;;;;;;22.23;7.43;;;;;;;16.91;48.95;99217.94;5093094;28;20028;-48
2022/12/20 04:05:34;;;;;;;7.88;2.72;;;;;;;16.85;49.96;99232.09;5091680;28;20028;-47
2022/12/20 04:07:59;;;;;;;14.30;5.35;;;;;;;16.93;49.62;99221.16;5091680;28;20067;-47
2022/12/20 04:10:25;;;;;;;11.43;4.47;;;;;;;16.91;48.49;99235.69;5090872;28;20027;-47
2022/12/20 04:12:51;;;;;;;11.43;4.20;;;;;;;16.85;48.74;99242.69;5091530;28;20024;-47
2022/12/20 04:15:16;;;;;;;22.33;8.80;;;;;;;16.88;49.17;99236.97;5091516;28;20020;-47
2022/12/20 04:17:42;;;;;;;26.55;10.40;;;;;;;16.86;48.95;99243.50;5091430;28;20570;-47
2022/12/20 04:20:18;;;;;;;22.58;10.90;;;;;;;16.87;49.25;99245.94;5092726;28;20020;-47
2022/12/20 04:22:49;;;;;;;6.47;2.78;;;;;;;16.71;48.43;99251.84;5075548;28;20043;-48
2022/12/20 04:25:17;;;;;;;9.15;3.88;;;;;;;16.50;49.38;99254.00;5091416;28;20043;-47
2022/12/20 04:27:43;;;;;;;9.40;3.72;;;;;;;16.36;49.25;99244.59;5074347;28;20114;-47
2022/12/20 04:30:09;;;;;;;10.68;3.72;;;;;;;16.23;50.07;99234.16;5092368;28;20466;-47
2022/12/20 04:32:35;;;;;;;8.82;2.47;;;;;;;16.22;50.24;99238.66;5092783;28;20024;-47
2022/12/20 04:35:00;;;;;;;13.93;4.50;;;;;;;16.24;50.03;99231.31;5092445;28;20076;-47
2022/12/20 04:37:26;;;;;;;17.40;6.35;;;;;;;16.25;50.67;99240.06;5091108;28;20024;-47
2022/12/20 04:39:52;;;;;;;5.53;1.98;;;;;;;16.42;50.10;99219.88;5092389;28;20035;-47
2022/12/20 04:42:17;;;;;;;13.50;4.85;;;;;;;16.42;49.99;99229.63;5090995;28;20043;-47
2022/12/20 04:44:43;;;;;;;9.68;2.95;;;;;;;16.33;50.57;99234.44;5092286;28;20024;-47
2022/12/20 04:47:09;;;;;;;17.30;6.45;;;;;;;16.26;50.98;99234.53;5090905;28;20028;-47
2022/12/20 04:49:34;;;;;;;2.22;1.23;;;;;;;16.35;50.38;99237.69;5090822;28;20059;-47
2022/12/20 04:53:46;;;;;;;38.15;10.60;;;;;;;16.41;51.32;99244.72;5092451;28;20016;-47
2022/12/20 04:54:46;;;;;;;;;;;;;;;16.42;50.24;99254.31;5092560;28;20040;-47
2022/12/20 04:57:12;;;;;;;13.05;3.40;;;;;;;16.36;50.05;99255.19;5090787;28;20412;-47
2022/12/20 04:59:38;;;;;;;23.63;11.80;;;;;;;16.39;51.39;99241.50;5090784;28;20032;-47
2022/12/20 05:02:03;;;;;;;24.67;8.07;;;;;;;16.52;50.70;99246.63;5092001;28;20028;-47
2022/12/20 05:04:29;;;;;;;8.82;2.30;;;;;;;16.63;49.85;99247.69;5091995;28;20024;-47
2022/12/20 05:06:55;;;;;;;3.85;1.10;;;;;;;16.68;49.89;99239.88;5090725;28;20412;-47
2022/12/20 05:09:21;;;;;;;4.38;1.20;;;;;;;16.72;49.07;99226.94;5090603;28;20497;-47
2022/12/20 05:11:46;;;;;;;15.90;7.32;;;;;;;16.47;49.71;99235.06;5090577;28;20034;-47
2022/12/20 05:14:12;;;;;;;11.13;4.72;;;;;;;16.53;49.91;99224.38;5091967;28;20025;-47
2022/12/20 05:16:38;;;;;;;17.95;5.72;;;;;;;16.76;49.94;99220.16;5092103;28;20422;-47
2022/12/20 05:19:03;;;;;;;17.98;5.47;;;;;;;17.00;49.36;99197.16;5091847;28;20355;-47
2022/12/20 05:26:58;;;;;;;13.45;6.47;;;;;;;17.33;48.04;99209.09;5096307;28;20422;-47
2022/12/20 05:29:24;;;;;;;24.65;9.48;;;;;;;17.37;47.34;99197.75;5095859;28;20490;-47
2022/12/20 05:31:49;;;;;;;10.30;4.63;;;;;;;17.43;47.70;99193.38;5094711;28;20031;-47
2022/12/20 05:34:15;;;;;;;7.25;2.00;;;;;;;17.50;46.39;99195.91;5095978;28;20032;-47
2022/12/20 05:36:41;;;;;;;40.35;18.10;;;;;;;17.24;47.43;99190.03;5095857;28;20019;-48
2022/12/20 05:39:06;;;;;;;30.13;13.80;;;;;;;17.26;47.66;99185.31;5094762;28;20128;-47
2022/12/20 05:41:32;;;;;;;13.52;5.07;;;;;;;17.28;46.91;99172.63;5094427;28;20482;-47
2022/12/20 05:43:57;;;;;;;32.95;13.40;;;;;;;17.33;47.59;99174.59;5095976;28;20081;-47
2022/12/20 05:46:23;;;;;;;22.23;6.93;;;;;;;17.43;46.68;99174.00;5094502;28;20027;-47
2022/12/20 05:48:49;;;;;;;19.90;7.65;;;;;;;17.53;47.05;99168.91;5095657;28;20544;-48
2022/12/20 05:51:14;;;;;;;12.30;4.47;;;;;;;17.58;45.56;99161.03;5095494;28;20012;-47
2022/12/20 05:53:40;;;;;;;28.90;12.63;;;;;;;17.53;46.56;99158.28;5095534;28;20032;-47
2022/12/20 05:56:05;;;;;;;55.42;22.60;;;;;;;17.51;46.39;99163.03;5094178;28;20020;-47
2022/12/20 05:58:31;;;;;;;23.73;11.27;;;;;;;17.44;46.03;99165.00;5095454;28;20405;-47
2022/12/20 06:01:00;;;;;;;3.97;1.80;;;;;;;17.32;45.52;99157.84;5094146;28;20040;-47
2022/12/20 06:03:26;;;;;;;9.05;3.10;;;;;;;17.15;45.68;99156.94;5094066;28;20028;-47
2022/12/20 06:05:51;;;;;;;9.55;3.67;;;;;;;17.05;46.13;99159.38;5094080;28;20028;-47
2022/12/20 06:08:17;;;;;;;11.82;3.78;;;;;;;17.00;46.14;99153.94;5094016;28;20035;-47
2022/12/20 06:10:42;;;;;;;5.70;2.00;;;;;;;16.99;45.71;99160.31;5076902;28;20489;-47
2022/12/20 06:13:09;;;;;;;4.72;1.40;;;;;;;16.96;45.81;99135.88;5095186;28;20035;-48
2022/12/20 06:15:36;;;;;;;9.02;2.97;;;;;;;17.00;45.68;99141.50;5095123;28;20023;-48
2022/12/20 06:18:02;;;;;;;5.95;2.50;;;;;;;17.03;45.18;99150.84;5095334;28;20031;-47
2022/12/20 06:20:28;;;;;;;9.02;3.95;;;;;;;17.02;45.08;99154.53;5094917;28;20024;-48
2022/12/20 06:22:53;;;;;;;17.02;5.75;;;;;;;17.00;45.30;99160.06;5093452;28;20112;-48
2022/12/20 06:25:19;;;;;;;5.75;1.52;;;;;;;17.05;44.93;99162.03;5094888;28;20036;-47
2022/12/20 06:27:45;;;;;;;4.90;1.85;;;;;;;17.07;44.59;99167.91;5076697;28;20031;-48
2022/12/20 06:30:11;;;;;;;9.10;2.78;;;;;;;16.93;44.86;99178.72;5093428;28;20080;-47
2022/12/20 06:32:38;;;;;;;5.90;1.45;;;;;;;16.94;44.94;99176.88;5093509;28;20092;-47
2022/12/20 06:35:04;;;;;;;9.85;1.95;;;;;;;16.97;44.91;99176.44;5094281;28;20028;-47
2022/12/20 06:37:31;;;;;;;4.40;1.63;;;;;;;17.03;44.87;99186.13;5093391;28;20020;-47
2022/12/20 06:39:57;;;;;;;5.85;1.42;;;;;;;17.05;44.94;99191.19;5093444;28;20058;-47
2022/12/20 06:42:23;;;;;;;2.05;1.02;;;;;;;16.90;45.25;99200.41;5094855;28;20020;-47
2022/12/20 06:44:48;;;;;;;2.72;1.00;;;;;;;16.80;45.63;99189.50;5094590;28;20375;-47
2022/12/20 06:47:14;;;;;;;4.15;1.70;;;;;;;16.71;46.23;99182.94;5094562;28;20048;-47
2022/12/20 06:49:40;;;;;;;11.98;3.90;;;;;;;16.66;46.50;99202.19;5094344;28;20035;-47
2022/12/20 06:52:05;;;;;;;1.92;0.93;;;;;;;16.67;46.37;99208.28;5094441;28;20024;-47
2022/12/20 06:54:31;;;;;;;3.03;1.20;;;;;;;16.62;46.64;99201.03;5094454;28;20024;-47
2022/12/20 06:56:56;;;;;;;21.17;6.45;;;;;;;16.63;46.96;99197.34;5094329;28;20012;-47
2022/12/20 06:59:22;;;;;;;3.40;1.40;;;;;;;16.74;46.25;99212.47;5094300;28;20405;-46
2022/12/20 07:01:47;;;;;;;9.80;3.80;;;;;;;16.72;46.56;99193.31;5094545;28;20103;-47
2022/12/20 07:04:13;;;;;;;4.25;1.95;;;;;;;16.72;46.46;99185.38;5094246;28;20115;-47
2022/12/20 07:06:39;;;;;;;34.50;13.13;;;;;;;16.56;47.45;99197.44;5094090;28;20020;-47
2022/12/20 07:09:04;;;;;;;12.18;3.08;;;;;;;16.64;47.35;99184.88;5092764;28;20032;-47
2022/12/20 07:11:30;;;;;;;11.35;2.92;;;;;;;16.63;47.24;99178.78;5092608;28;20097;-47
2022/12/20 07:13:56;;;;;;;11.65;3.50;;;;;;;16.82;46.88;99165.47;5092737;28;20370;-47
2022/12/20 07:16:22;;;;;;;8.23;1.85;;;;;;;16.83;46.72;99161.78;5092611;28;20059;-47
2022/12/20 07:18:50;;;;;;;9.88;2.78;;;;;;;16.75;46.96;99165.56;5093904;28;20039;-47
2022/12/20 07:21:16;;;;;;;9.77;2.70;;;;;;;16.81;47.00;99169.97;5092518;28;20047;-47
2022/12/20 07:23:42;;;;;;;6.43;1.60;;;;;;;16.84;46.87;99177.47;5093620;28;20410;-47
2022/12/20 07:26:08;;;;;;;3.33;1.20;;;;;;;16.86;46.52;99153.38;5092456;28;20024;-47
2022/12/20 07:28:33;;;;;;;6.53;2.03;;;;;;;16.78;46.68;99139.41;5093647;28;20034;-47
2022/12/20 07:31:01;;;;;;;7.85;3.53;;;;;;;16.78;47.99;99128.78;5093885;28;20115;-47
2022/12/20 07:33:27;;;;;;;8.77;4.03;;;;;;;16.97;48.22;99126.84;5092286;28;20524;-47
2022/12/20 07:36:03;;;;;;;6.28;2.40;;;;;;;17.11;46.54;99145.19;5093616;28;20056;-47
2022/12/20 07:38:29;;;;;;;15.38;4.78;;;;;;;17.15;46.88;99127.78;5092276;28;20020;-47
2022/12/20 07:40:54;;;;;;;8.27;2.80;;;;;;;17.15;48.72;99117.16;5093436;28;20482;-47
2022/12/20 07:43:20;;;;;;;7.70;3.35;;;;;;;16.96;47.22;99121.78;5092098;28;20024;-47
2022/12/20 07:45:46;;;;;;;3.67;1.55;;;;;;;16.97;46.62;99112.81;5092446;28;20059;-47
2022/12/20 07:48:12;;;;;;;5.57;1.77;;;;;;;16.97;46.75;99134.81;5092066;28;20024;-47
2022/12/20 07:50:39;;;;;;;4.70;1.25;;;;;;;16.98;47.34;99125.00;5093171;28;20032;-47
2022/12/20 07:53:06;;;;;;;5.15;1.92;;;;;;;17.07;46.74;99126.28;5093364;28;20366;-47
2022/12/20 07:55:32;;;;;;;76.18;30.45;;;;;;;17.10;46.26;99117.06;5093233;28;20027;-47
2022/12/20 07:58:05;;;;;;;48.88;18.90;;;;;;;17.09;50.33;99136.66;5091871;28;20036;-47
2022/12/20 08:00:31;;;;;;;12.73;3.67;;;;;;;17.01;47.08;99126.41;5093086;28;20024;-48
2022/12/20 08:03:20;;;;;;;85.50;20.02;;;;;;;16.99;48.58;99123.19;5091806;28;20024;-47
2022/12/20 08:05:50;;;;;;;844.95;417.80;;;;;;;17.08;46.78;99129.72;5093104;28;20527;-47
2022/12/20 08:08:17;;;;;;;384.48;152.23;;;;;;;17.04;46.23;99144.50;5093018;28;20020;-47
2022/12/20 08:10:43;;;;;;;82.95;31.35;;;;;;;16.77;46.19;99155.53;5091532;28;20028;-47
2022/12/20 08:13:09;;;;;;;12.60;5.60;;;;;;;16.55;46.78;99161.34;5074725;28;20035;-47
2022/12/20 08:15:35;;;;;;;52.78;22.70;;;;;;;16.38;47.54;99165.72;5091679;28;20055;-47
2022/12/20 08:18:01;;;;;;;10.40;2.80;;;;;;;16.34;47.30;99167.19;5092902;28;20398;-47
2022/12/20 08:20:27;;;;;;;6.07;2.15;;;;;;;16.33;46.97;99118.69;5092777;28;20031;-47
2022/12/20 08:22:53;;;;;;;7.15;1.75;;;;;;;16.20;47.37;99147.22;5091132;28;20016;-47
2022/12/20 08:25:20;;;;;;;5.63;1.77;;;;;;;16.09;47.91;99152.25;5091426;28;20024;-47
2022/12/20 08:27:46;;;;;;;1077.43;502.08;;;;;;;16.12;47.74;99145.72;5092674;28;20405;-47
2022/12/20 08:30:12;;;;;;;238.88;105.43;;;;;;;16.18;47.58;99131.56;5091148;28;20085;-47
2022/12/20 08:32:38;;;;;;;703.55;392.80;;;;;;;16.02;47.72;99129.53;5092512;28;20028;-47
2022/12/20 08:35:05;;;;;;;26.08;11.52;;;;;;;15.93;48.03;99129.03;5092478;28;20524;-47
2022/12/20 08:37:31;;;;;;;13.75;6.38;;;;;;;15.91;48.44;99109.94;5091156;28;20024;-47
2022/12/20 08:39:56;;;;;;;8.20;3.10;;;;;;;15.99;48.07;99117.56;5091100;28;20027;-47
2022/12/20 08:42:22;;;;;;;8.60;2.28;;;;;;;16.03;47.96;99086.94;5092622;28;20028;-47
2022/12/20 08:44:47;;;;;;;3.92;1.20;;;;;;;15.94;47.82;99083.81;5091058;28;20024;-47
2022/12/20 08:47:14;;;;;;;4.38;1.65;;;;;;;15.86;48.40;99101.88;5092292;28;20023;-47
2022/12/20 08:49:40;;;;;;;8.90;3.97;;;;;;;15.82;49.01;99095.41;5090919;28;20059;-47
2022/12/20 08:52:05;;;;;;;35.72;19.35;;;;;;;15.90;48.80;99087.97;5090889;28;20481;-47
2022/12/20 08:54:31;;;;;;;7.18;4.47;;;;;;;15.98;48.25;99102.72;5090845;28;20028;-47
2022/12/20 08:56:57;;;;;;;16.23;9.98;;;;;;;15.94;48.51;99117.44;5091910;28;20020;-47
2022/12/20 08:59:22;;;;;;;6.95;2.42;;;;;;;15.94;48.95;99101.56;5090834;28;20153;-47
2022/12/20 09:01:48;;;;;;;7.32;6.43;;;;;;;16.03;48.48;99117.94;5092025;28;20422;-47
2022/12/20 09:04:15;;;;;;;6.18;2.47;;;;;;;16.14;50.17;99114.53;5091991;28;20028;-47
2022/12/20 09:06:40;;;;;;;2.42;1.52;;;;;;;16.30;48.04;99129.75;5091938;28;20019;-47
2022/12/20 09:09:06;;;;;;;3.20;0.93;;;;;;;16.31;47.97;99141.16;5090625;28;20046;-47
2022/12/20 09:11:33;;;;;;;5.65;1.27;;;;;;;16.27;48.28;99135.50;5090612;28;20020;-47
2022/12/20 09:13:58;;;;;;;6.18;1.40;;;;;;;16.30;48.11;99128.97;5090625;28;20035;-47
2022/12/20 09:16:27;;;;;;;1.80;0.95;;;;;;;16.42;47.83;99136.91;5090549;28;20020;-47
2022/12/20 09:18:55;;;;;;;1.65;0.63;;;;;;;16.47;48.22;99142.34;5091897;28;20039;-47
2022/12/20 09:21:22;;;;;;;3.58;0.93;;;;;;;16.47;48.65;99156.38;5091704;28;20020;-47
2022/12/20 09:23:52;;;;;;;4.80;0.93;;;;;;;16.50;49.18;99144.53;5090308;28;20040;-47
2022/12/20 09:26:19;;;;;;;4.47;1.20;;;;;;;16.47;48.47;99124.59;5091835;28;20096;-47
2022/12/20 09:28:46;;;;;;;3.92;0.90;;;;;;;16.52;47.46;99121.25;5091811;28;20030;-48
2022/12/20 09:31:14;;;;;;;3.50;1.10;;;;;;;16.52;48.06;99110.66;5073512;28;20016;-47
2022/12/20 09:33:41;;;;;;;3.30;1.17;;;;;;;16.46;47.53;99111.56;5090417;28;20020;-47
2022/12/20 09:36:10;;;;;;;3.83;0.90;;;;;;;16.47;47.60;99114.00;5091717;28;20192;-47
2022/12/20 09:38:35;;;;;;;6.03;1.20;;;;;;;16.47;47.65;99140.50;5091728;28;20055;-47
2022/12/20 09:41:04;;;;;;;3.90;0.95;;;;;;;16.49;47.51;99108.47;5091696;28;20024;-47
2022/12/20 09:43:31;;;;;;;7.75;1.40;;;;;;;16.38;47.94;99120.69;5091641;28;20028;-47
2022/12/20 09:46:00;;;;;;;2.65;1.20;;;;;;;16.47;47.84;99094.66;5090436;28;20516;-47
2022/12/20 09:48:39;;;;;;;2.15;0.88;;;;;;;16.55;47.44;99083.72;5091626;28;20024;-47
2022/12/20 09:51:36;;;;;;;5.07;1.45;;;;;;;16.48;47.45;99102.38;5091567;28;20527;-47
2022/12/20 09:54:15;;;;;;;4.15;1.10;;;;;;;16.63;47.36;99075.44;5091590;28;20024;-47
2022/12/20 09:56:56;;;;;;;4.60;1.20;;;;;;;16.59;47.40;99061.03;5091591;28;20020;-47
2022/12/20 09:59:23;;;;;;;5.00;1.08;;;;;;;16.47;47.92;99041.66;5091635;28;20035;-47
2022/12/20 10:01:49;;;;;;;4.00;1.08;;;;;;;16.55;48.24;99043.97;5091513;28;20107;-47
2022/12/20 10:04:27;;;;;;;3.22;1.08;;;;;;;16.56;47.75;99046.41;5091480;28;20034;-47
2022/12/20 10:07:05;;;;;;;3.15;0.80;;;;;;;16.54;48.02;99037.88;5090135;28;20024;-47
2022/12/20 10:09:51;;;;;;;3.97;1.35;;;;;;;16.57;48.38;99042.69;5093295;28;20024;-47
2022/12/20 10:12:46;;;;;;;5.20;1.60;;;;;;;16.44;48.58;99032.34;5094423;28;20462;-47
2022/12/20 10:15:22;;;;;;;2.92;0.93;;;;;;;16.56;48.14;99024.41;5092004;28;20036;-47
2022/12/20 10:17:58;;;;;;;3.50;0.88;;;;;;;16.55;47.89;99014.81;5095465;28;20027;-47
2022/12/20 10:20:38;;;;;;;2.78;0.98;;;;;;;16.45;47.88;99030.50;5095076;28;20032;-47
2022/12/20 10:23:10;;;;;;;3.75;0.88;;;;;;;16.35;48.25;98999.28;5094803;28;20044;-48
2022/12/20 10:25:36;;;;;;;2.65;0.93;;;;;;;16.28;48.66;99041.78;5093933;28;20030;-47
2022/12/20 10:28:09;;;;;;;4.53;1.00;;;;;;;16.34;48.50;99019.66;5094920;28;20099;-47
2022/12/20 10:30:35;;;;;;;4.15;1.27;;;;;;;16.31;48.53;99004.22;5094858;28;20047;-47
2022/12/20 10:33:01;;;;;;;6.03;1.05;;;;;;;16.18;49.00;99021.16;5093490;28;20024;-47
2022/12/20 10:35:39;;;;;;;14.70;1.40;;;;;;;16.13;50.75;99012.28;5094845;28;20107;-47
2022/12/20 10:38:13;;;;;;;8.75;1.40;;;;;;;16.08;49.66;99014.81;5094756;28;20024;-47
2022/12/20 10:40:41;;;;;;;4.25;1.10;;;;;;;16.08;49.57;99031.50;5094680;28;20028;-47
2022/12/20 10:43:16;;;;;;;1.63;1.10;;;;;;;16.15;49.22;98976.56;5094631;28;20044;-47
2022/12/20 10:45:44;;;;;;;1.85;0.82;;;;;;;16.15;48.97;98991.66;5093362;28;20031;-47
2022/12/20 10:48:32;;;;;;;4.03;1.55;;;;;;;16.14;49.30;98990.88;5094477;28;20508;-47
2022/12/20 10:51:23;;;;;;;4.35;1.45;;;;;;;16.30;48.97;99013.22;5093099;28;20024;-47
2022/12/20 10:53:48;;;;;;;6.72;1.08;;;;;;;16.34;48.87;99003.78;5094097;28;20044;-47
2022/12/20 10:56:18;;;;;;;4.00;1.10;;;;;;;16.49;48.45;99021.84;5093026;28;20028;-47
2022/12/20 10:58:52;;;;;;;8.88;1.70;;;;;;;16.52;49.06;99012.63;5094335;28;20034;-47
2022/12/20 11:01:20;;;;;;;3.40;1.10;;;;;;;16.71;48.16;99016.78;5094401;28;20078;-47
2022/12/20 11:04:06;;;;;;;6.10;1.30;;;;;;;16.70;48.22;98999.28;5094255;28;20020;-47
2022/12/20 11:06:38;;;;;;;4.88;1.10;;;;;;;16.72;47.76;99009.63;5092911;28;20071;-47
2022/12/20 11:09:31;;;;;;;2.72;1.13;;;;;;;16.71;47.88;99010.69;5094105;28;20088;-47
2022/12/20 11:12:15;;;;;;;2.95;1.13;;;;;;;16.74;47.96;99044.66;5084533;28;20043;-47
2022/12/20 11:14:43;;;;;;;5.03;1.30;;;;;;;16.77;48.22;99033.59;5092791;28;20411;-47
2022/12/20 11:17:34;;;;;;;6.43;2.03;;;;;;;16.94;47.42;99029.25;5092615;28;20158;-47
2022/12/20 11:20:24;;;;;;;4.05;0.90;;;;;;;16.91;47.22;99034.19;5092450;28;20030;-47
2022/12/20 11:23:22;;;;;;;3.33;1.00;;;;;;;16.78;47.69;99024.59;5093860;28;20435;-47
2022/12/20 11:26:27;;;;;;;3.05;0.70;;;;;;;16.79;47.40;99010.31;5092539;28;20052;-47
2022/12/20 11:29:01;;;;;;;1.88;1.10;;;;;;;16.77;48.42;99013.19;5093759;28;20031;-47
2022/12/20 11:31:48;;;;;;;3.45;1.08;;;;;;;16.71;48.24;99008.81;5093657;28;20504;-47
2022/12/20 11:34:48;;;;;;;4.07;1.63;;;;;;;16.70;48.51;99001.09;5093673;28;20056;-47
2022/12/20 11:37:18;;;;;;;1.60;0.50;;;;;;;16.82;47.89;99009.06;5092339;28;20020;-47
2022/12/20 11:40:14;;;;;;;2.85;1.08;;;;;;;16.87;48.22;98999.38;5092257;28;20144;-47
2022/12/20 11:42:48;;;;;;;4.75;1.30;;;;;;;16.90;48.00;98990.16;5093606;28;20020;-47
2022/12/20 11:45:30;;;;;;;6.88;1.85;;;;;;;16.85;48.66;98988.22;5093566;28;20077;-47
2022/12/20 11:48:04;;;;;;;4.35;1.00;;;;;;;16.79;48.23;98999.72;5093445;28;20161;-47